Time;durP1;ratioP1;P1;durP2;ratioP2;P2;SDS_P1;SDS_P2;PMS_P1;PMS_P2;Temp;Humidity;BMP_temperature;BMP_pressure;BME280_temperature;BME280_humidity;BME280_pressure;Samples;Min_cycle;Max_cycle;Signal;HPM_P1;HPM_P2
2023/06/06 00:02:22;;;;;;;6.00;3.22;;;13.10;99.90;;;12.90;100.00;101131.59;5007073;28;20525;-80
2023/06/06 00:04:50;;;;;;;5.40;3.08;;;13.00;99.90;;;12.80;100.00;101139.44;5007226;28;20034;-80
2023/06/06 00:07:16;;;;;;;6.00;3.08;;;12.90;99.90;;;12.60;100.00;101125.88;4985868;28;20050;-81
2023/06/06 00:09:43;;;;;;;5.30;3.67;;;12.70;99.90;;;12.54;100.00;101141.25;5001872;28;20064;-80
2023/06/06 00:12:12;;;;;;;4.78;3.30;;;12.60;99.90;;;12.46;100.00;101138.78;5001735;28;20037;-80
2023/06/06 00:14:40;;;;;;;8.38;3.50;;;12.50;99.90;;;12.40;100.00;101135.00;5004501;28;20474;-80
2023/06/06 00:17:09;;;;;;;6.13;3.83;;;12.50;99.90;;;12.39;100.00;101135.25;5005974;28;20038;-80
2023/06/06 00:19:40;;;;;;;6.43;3.63;;;12.50;99.90;;;12.47;100.00;101134.97;5008292;28;20034;-80
2023/06/06 00:22:07;;;;;;;5.57;3.42;;;12.50;99.90;;;12.66;100.00;101135.94;5017548;28;20519;-80
2023/06/06 00:24:32;;;;;;;5.07;3.28;;;12.60;99.90;;;12.83;100.00;101135.44;5004318;28;20038;-80
2023/06/06 00:26:58;;;;;;;7.72;3.85;;;12.70;99.90;;;12.64;100.00;101138.06;5007133;28;20121;-80
2023/06/06 00:29:24;;;;;;;5.90;3.53;;;12.60;99.90;;;12.47;100.00;101140.47;5000633;28;20050;-81
2023/06/06 00:31:49;;;;;;;5.15;3.20;;;12.50;99.90;;;12.32;100.00;101147.03;5002713;28;20045;-80
2023/06/06 00:34:16;;;;;;;6.32;3.65;;;12.40;99.90;;;12.21;100.00;101154.03;5010224;28;20085;-80
2023/06/06 00:36:42;;;;;;;6.25;3.40;;;12.20;99.90;;;12.08;100.00;101152.19;5009569;28;20034;-80
2023/06/06 00:39:08;;;;;;;7.45;3.45;;;12.20;99.90;;;12.00;100.00;101155.09;5011095;28;20034;-80
2023/06/06 00:41:34;;;;;;;6.43;3.70;;;12.00;99.90;;;11.92;100.00;101153.44;4999722;28;20477;-80
2023/06/06 00:44:00;;;;;;;8.38;4.38;;;11.90;99.90;;;11.92;100.00;101153.44;5004656;28;20048;-80
2023/06/06 00:46:26;;;;;;;8.30;3.97;;;11.90;99.90;;;11.94;100.00;101154.09;5001959;28;20042;-80
2023/06/06 00:48:51;;;;;;;9.10;4.10;;;11.90;99.90;;;11.78;100.00;101159.97;5009455;28;20062;-81
2023/06/06 00:51:17;;;;;;;7.70;3.90;;;11.80;99.90;;;11.58;100.00;101160.84;5009568;28;20030;-81
2023/06/06 00:53:45;;;;;;;5.97;3.60;;;11.60;99.90;;;11.40;100.00;101157.88;4996669;28;20053;-80
2023/06/06 00:56:13;;;;;;;8.02;3.33;;;11.40;99.90;;;11.22;100.00;101160.19;5001840;28;20030;-80
2023/06/06 00:58:41;;;;;;;5.35;3.53;;;11.30;99.90;;;11.07;100.00;101159.56;5023032;28;20034;-80
2023/06/06 01:01:08;;;;;;;6.70;3.85;;;11.10;99.90;;;11.00;100.00;101153.22;5007252;28;20037;-80
2023/06/06 01:03:34;;;;;;;6.45;3.97;;;11.10;99.90;;;10.99;100.00;101159.75;5000556;28;20096;-80
2023/06/06 01:06:01;;;;;;;10.90;4.18;;;11.10;99.90;;;10.96;100.00;101157.44;5008376;28;20032;-80
2023/06/06 01:08:28;;;;;;;7.00;4.10;;;11.10;99.90;;;10.96;100.00;101161.00;5011677;28;20037;-80
2023/06/06 01:11:06;;;;;;;8.07;4.05;;;11.00;99.90;;;10.82;100.00;101164.75;5012826;28;20060;-80
2023/06/06 01:14:05;;;;;;;6.80;3.95;;;10.90;99.90;;;10.77;100.00;101159.91;4985856;28;20038;-80
2023/06/06 01:16:34;;;;;;;8.52;4.70;;;10.80;99.90;;;10.92;100.00;101166.03;5003097;28;20062;-80
2023/06/06 01:19:01;;;;;;;;;;;10.90;99.90;;;11.03;100.00;101161.84;5003522;28;20053;-80
2023/06/06 01:21:41;;;;;;;7.32;3.88;;;10.90;99.90;;;11.12;100.00;101158.91;4996024;28;19921;-80
2023/06/06 01:24:08;;;;;;;6.50;3.78;;;11.00;99.90;;;11.22;100.00;101159.38;5003237;28;20048;-79
2023/06/06 01:26:34;;;;;;;6.80;4.10;;;11.10;99.90;;;11.37;100.00;101153.69;4999757;28;20035;-80
2023/06/06 01:29:01;;;;;;;10.20;4.35;;;11.20;99.90;;;11.31;100.00;101152.66;4997845;28;20034;-80
2023/06/06 01:31:42;;;;;;;6.45;4.13;;;11.20;99.90;;;11.35;100.00;101156.63;5003504;28;20038;-80
2023/06/06 01:34:33;;;;;;;6.80;4.47;;;11.20;99.90;;;11.34;100.00;101152.22;4998941;28;20029;-80
2023/06/06 01:37:35;;;;;;;11.05;4.20;;;11.30;99.90;;;11.24;100.00;101151.81;4995821;28;20027;-80
2023/06/06 01:40:07;;;;;;;7.25;4.47;;;11.20;99.90;;;11.18;100.00;101152.66;4999093;28;20034;-80
2023/06/06 01:42:43;;;;;;;8.25;4.57;;;11.20;99.90;;;11.28;100.00;101155.78;5010084;28;20110;-80
2023/06/06 01:45:12;;;;;;;6.75;4.60;;;11.30;99.90;;;11.18;100.00;101155.38;4998850;28;20031;-80
2023/06/06 01:47:39;;;;;;;6.07;4.18;;;11.20;99.90;;;10.97;100.00;101146.31;5008689;28;20045;-80
2023/06/06 01:50:08;;;;;;;7.80;4.10;;;11.00;99.90;;;10.88;100.00;101151.13;5004003;28;20486;-80
2023/06/06 01:52:37;;;;;;;6.68;4.45;;;10.90;99.90;;;10.98;100.00;101148.00;4999481;28;20367;-79
2023/06/06 01:55:05;;;;;;;6.55;4.60;;;10.90;99.90;;;11.00;100.00;101150.50;5004976;28;20038;-79
2023/06/06 01:57:32;;;;;;;8.85;4.63;;;11.00;99.90;;;11.04;100.00;101155.34;5011293;28;20037;-80
2023/06/06 01:59:58;;;;;;;10.30;4.75;;;11.00;99.90;;;11.04;100.00;101159.97;4976510;28;20034;-80
2023/06/06 02:02:24;;;;;;;10.00;4.70;;;11.00;99.90;;;11.03;100.00;101156.41;5004391;28;20042;-80
2023/06/06 02:04:50;;;;;;;7.10;4.18;;;11.00;99.90;;;11.13;100.00;101152.41;4998771;28;20034;-80
2023/06/06 02:07:16;;;;;;;8.00;4.63;;;11.10;99.90;;;11.17;100.00;101162.72;5014886;28;20084;-80
2023/06/06 02:09:44;;;;;;;8.32;4.70;;;11.10;99.90;;;11.03;100.00;101152.84;5010225;28;20393;-80
2023/06/06 02:12:11;;;;;;;9.50;4.70;;;11.00;99.90;;;10.91;100.00;101155.34;5015755;28;20045;-80
2023/06/06 02:14:36;;;;;;;7.28;4.78;;;10.90;99.90;;;10.82;100.00;101153.81;4995499;28;20034;-80
2023/06/06 02:17:03;;;;;;;7.60;4.30;;;10.90;99.90;;;10.68;100.00;101152.94;4994268;28;20085;-80
2023/06/06 02:19:31;;;;;;;7.82;3.97;;;10.70;99.90;;;10.40;100.00;101154.75;5009116;28;20438;-80
2023/06/06 02:21:57;;;;;;;7.63;4.90;;;10.50;99.90;;;10.19;100.00;101151.06;5002666;28;20034;-80
2023/06/06 02:24:26;;;;;;;13.02;4.60;;;10.30;99.90;;;10.01;100.00;101151.59;5006597;28;20042;-80
2023/06/06 02:26:53;;;;;;;7.40;4.68;;;10.10;99.90;;;9.89;100.00;101147.72;5000284;28;20034;-80
2023/06/06 02:29:23;;;;;;;8.52;5.28;;;10.00;99.90;;;9.91;100.00;101149.22;5001691;28;20029;-80
2023/06/06 02:31:49;;;;;;;6.90;4.65;;;10.00;99.90;;;9.85;100.00;101146.44;4996984;28;20312;-80
2023/06/06 02:34:16;;;;;;;7.70;5.07;;;9.90;99.90;;;9.77;100.00;101147.44;5005834;28;20077;-81
2023/06/06 02:36:41;;;;;;;8.25;5.10;;;9.90;99.90;;;9.72;100.00;101147.19;4995496;28;20042;-80
2023/06/06 02:39:08;;;;;;;10.23;5.38;;;9.80;99.90;;;9.75;100.00;101153.09;5009961;28;20516;-79
2023/06/06 02:41:34;;;;;;;11.20;5.70;;;9.80;99.90;;;9.82;100.00;101144.13;5009830;28;20056;-80
2023/06/06 02:44:01;;;;;;;10.05;5.43;;;9.90;99.90;;;9.84;100.00;101150.22;5000204;28;20390;-80
2023/06/06 02:46:30;;;;;;;9.68;5.68;;;9.90;99.90;;;9.79;100.00;101148.06;5003794;28;20545;-80
2023/06/06 02:48:56;;;;;;;11.60;6.10;;;9.80;99.90;;;9.85;100.00;101144.56;5005818;28;20045;-80
2023/06/06 02:51:23;;;;;;;11.93;5.60;;;9.80;99.90;;;9.99;100.00;101150.94;5005050;28;20034;-80
2023/06/06 02:53:52;;;;;;;11.40;6.15;;;10.00;99.90;;;10.03;100.00;101143.19;5001114;28;20038;-80
2023/06/06 02:56:17;;;;;;;9.98;4.97;;;10.00;99.90;;;9.90;100.00;101143.97;5009180;28;20093;-80
2023/06/06 02:58:44;;;;;;;9.38;5.68;;;9.90;99.90;;;9.74;100.00;101142.38;5012614;28;20120;-80
2023/06/06 03:01:12;;;;;;;9.27;5.35;;;9.80;99.90;;;9.67;100.00;101153.22;5011132;28;20363;-79
2023/06/06 03:03:39;;;;;;;8.60;5.28;;;9.70;99.90;;;9.57;100.00;101158.19;5008213;28;20466;-81
2023/06/06 03:06:06;;;;;;;11.48;6.13;;;9.60;99.90;;;9.48;100.00;101152.91;5006316;28;20029;-80
2023/06/06 03:08:33;;;;;;;9.73;5.55;;;9.60;99.90;;;9.53;100.00;101155.00;5009942;28;20398;-80
2023/06/06 03:10:59;;;;;;;9.65;5.63;;;9.60;99.90;;;9.66;100.00;101142.56;4998361;28;20042;-80
2023/06/06 03:13:24;;;;;;;9.43;5.75;;;9.60;99.90;;;9.88;100.00;101151.50;5018563;28;20037;-81
2023/06/06 03:15:51;;;;;;;12.38;6.57;;;9.80;99.90;;;9.91;100.00;101151.94;5016838;28;20099;-84
2023/06/06 03:18:20;;;;;;;10.55;5.55;;;9.90;99.90;;;9.98;100.00;101156.59;5006053;28;20041;-80
2023/06/06 03:20:51;;;;;;;8.15;5.50;;;9.90;99.90;;;9.89;100.00;101156.75;5011543;28;20034;-81
2023/06/06 03:23:18;;;;;;;9.75;5.93;;;9.80;99.90;;;9.81;100.00;101161.50;4993940;28;20121;-81
2023/06/06 03:25:45;;;;;;;9.10;5.43;;;9.70;99.90;;;9.71;100.00;101161.88;4993745;28;20129;-81
2023/06/06 03:28:14;;;;;;;10.73;5.65;;;9.60;99.90;;;9.61;100.00;101162.22;5015427;28;20033;-80
2023/06/06 03:30:40;;;;;;;9.05;5.45;;;9.50;99.90;;;9.61;100.00;101154.88;4997652;28;20049;-79
2023/06/06 03:33:07;;;;;;;10.07;5.90;;;9.50;99.90;;;9.77;100.00;101155.59;5006566;28;20483;-78
2023/06/06 03:35:35;;;;;;;10.13;6.07;;;9.70;99.90;;;9.96;100.00;101159.53;5016912;28;20425;-77
2023/06/06 03:38:04;;;;;;;10.77;6.28;;;9.80;99.90;;;10.04;100.00;101151.19;5009623;28;20030;-78
2023/06/06 03:40:31;;;;;;;8.52;6.03;;;10.00;99.90;;;10.02;100.00;101152.41;5006678;28;20078;-78
2023/06/06 03:42:57;;;;;;;11.23;5.80;;;10.00;99.90;;;10.10;100.00;101155.00;5003286;28;20030;-78
2023/06/06 03:45:24;;;;;;;10.52;6.05;;;10.00;99.90;;;10.16;100.00;101162.38;5007305;28;20045;-77
2023/06/06 03:47:51;;;;;;;10.98;5.38;;;10.10;99.90;;;10.26;100.00;101167.47;5020078;28;20493;-76
2023/06/06 03:50:21;;;;;;;13.65;6.30;;;10.20;99.90;;;10.33;100.00;101162.88;5003024;28;20030;-78
2023/06/06 03:52:47;;;;;;;19.75;5.90;;;10.30;99.90;;;10.29;100.00;101167.03;5000186;28;20045;-78
2023/06/06 03:55:13;;;;;;;15.63;6.55;;;10.30;99.90;;;10.32;100.00;101158.47;4996186;28;20058;-77
2023/06/06 03:57:40;;;;;;;13.55;6.00;;;10.40;99.90;;;10.44;100.00;101160.63;5006864;28;20073;-78
2023/06/06 04:00:13;;;;;;;16.43;5.73;;;10.50;99.90;;;10.49;100.00;101161.69;5009167;28;20033;-78
2023/06/06 04:02:42;;;;;;;9.75;5.97;;;10.60;99.90;;;10.51;100.00;101164.25;5006202;28;20517;-77
2023/06/06 04:05:09;;;;;;;13.32;6.13;;;10.60;99.90;;;10.48;100.00;101165.47;5010952;28;20559;-77
2023/06/06 04:07:35;;;;;;;9.40;5.63;;;10.60;99.90;;;10.38;100.00;101161.41;5009130;28;20351;-77
2023/06/06 04:10:02;;;;;;;14.68;5.93;;;10.50;99.90;;;10.43;100.00;101173.44;5014620;28;20034;-77
2023/06/06 04:12:30;;;;;;;12.63;5.63;;;10.50;99.90;;;10.40;100.00;101171.13;5001832;28;20097;-77
2023/06/06 04:14:56;;;;;;;13.70;5.55;;;10.40;99.90;;;10.41;100.00;101164.63;5012746;28;20034;-76
2023/06/06 04:17:26;;;;;;;13.93;6.88;;;10.50;99.90;;;10.53;100.00;101166.75;5013289;28;20030;-77
2023/06/06 04:19:53;;;;;;;11.32;5.95;;;10.60;99.90;;;10.58;100.00;101166.97;5012478;28;20060;-77
2023/06/06 04:22:20;;;;;;;15.75;6.25;;;10.70;99.90;;;10.56;100.00;101158.16;5000160;28;20041;-77
2023/06/06 04:24:46;;;;;;;13.40;7.07;;;10.70;99.90;;;10.64;100.00;101177.09;5023618;28;20427;-77
2023/06/06 04:27:13;;;;;;;11.82;5.45;;;10.70;99.90;;;10.56;100.00;101177.25;5003138;28;20326;-76
2023/06/06 04:29:42;;;;;;;8.20;5.05;;;10.60;99.90;;;10.45;100.00;101171.34;5018237;28;20049;-77
2023/06/06 04:32:13;;;;;;;7.93;5.68;;;10.60;99.90;;;10.40;100.00;101175.69;5016222;28;20479;-77
2023/06/06 04:34:41;;;;;;;9.13;6.05;;;10.50;99.90;;;10.35;100.00;101176.31;5007134;28;20060;-77
2023/06/06 04:37:08;;;;;;;10.02;5.90;;;10.40;99.90;;;10.14;100.00;101160.88;5002400;28;20060;-76
2023/06/06 04:39:38;;;;;;;8.25;5.80;;;10.30;99.90;;;10.23;100.00;101181.50;5017821;28;20038;-77
2023/06/06 04:42:05;;;;;;;10.13;5.75;;;10.20;99.90;;;10.21;100.00;101184.41;5011306;28;20025;-77
2023/06/06 04:44:32;;;;;;;10.57;5.63;;;10.20;99.90;;;10.16;100.00;101181.44;4996135;28;20074;-77
2023/06/06 04:47:03;;;;;;;11.55;6.45;;;10.20;99.90;;;10.21;100.00;101181.69;5019928;28;20034;-78
2023/06/06 04:49:35;;;;;;;14.07;6.85;;;10.20;99.90;;;10.40;100.00;101175.69;5008616;28;20599;-77
2023/06/06 04:52:05;;;;;;;12.80;6.43;;;10.30;99.90;;;10.54;100.00;101182.94;5003982;28;20133;-77
2023/06/06 04:54:37;;;;;;;12.90;7.03;;;10.50;99.90;;;10.74;100.00;101187.59;5001512;28;20046;-76
2023/06/06 04:57:05;;;;;;;12.40;6.40;;;10.70;99.90;;;10.90;100.00;101187.25;4995638;28;20041;-77
2023/06/06 04:59:32;;;;;;;14.65;6.57;;;10.90;99.90;;;11.01;100.00;101188.53;4995291;28;20053;-77
2023/06/06 05:01:58;;;;;;;13.77;7.03;;;11.00;99.90;;;11.16;100.00;101187.53;4999556;28;20097;-77
2023/06/06 05:04:24;;;;;;;13.32;6.38;;;11.10;99.90;;;11.27;100.00;101184.16;4995445;28;20116;-77
2023/06/06 05:06:50;;;;;;;13.98;6.25;;;11.30;99.90;;;11.55;100.00;101188.59;4998710;28;20048;-77
2023/06/06 05:09:16;;;;;;;16.38;6.57;;;11.60;99.90;;;11.83;100.00;101190.25;5009193;28;20509;-78
2023/06/06 05:11:51;;;;;;;16.08;6.40;;;11.90;99.90;;;12.17;100.00;101188.31;5001918;28;20050;-78
2023/06/06 05:14:23;;;;;;;15.77;5.60;;;12.30;99.90;;;12.48;100.00;101180.44;5005193;28;20079;-79
2023/06/06 05:16:53;;;;;;;13.88;5.93;;;12.70;99.90;;;12.76;100.00;101168.31;5011260;28;20080;-79
2023/06/06 05:19:20;;;;;;;16.75;6.32;;;13.10;99.90;;;12.99;100.00;101180.63;5002151;28;20046;-78
2023/06/06 05:21:47;;;;;;;14.02;5.60;;;13.30;99.90;;;13.18;100.00;101179.66;5003809;28;20169;-78
2023/06/06 05:24:14;;;;;;;10.48;5.47;;;13.60;99.90;;;13.35;100.00;101182.69;4995043;28;20041;-78
2023/06/06 05:26:41;;;;;;;13.52;5.32;;;13.70;99.90;;;13.49;100.00;101177.13;4976681;28;20044;-78
2023/06/06 05:29:07;;;;;;;16.10;5.43;;;13.90;99.90;;;13.59;100.00;101180.22;5003097;28;20038;-79
2023/06/06 05:31:33;;;;;;;15.25;5.95;;;14.00;99.90;;;13.75;100.00;101191.66;5004297;28;20049;-78
2023/06/06 05:34:00;;;;;;;17.77;5.93;;;14.10;99.90;;;13.76;100.00;101185.13;5010552;28;20057;-80
2023/06/06 05:36:26;;;;;;;19.73;5.75;;;14.20;99.90;;;13.83;100.00;101185.06;5022475;28;20037;-78
2023/06/06 05:38:52;;;;;;;14.90;5.82;;;14.20;99.90;;;13.77;100.00;101175.81;5014484;28;20046;-80
2023/06/06 05:41:19;;;;;;;13.15;5.10;;;14.20;99.90;;;13.83;100.00;101183.19;5005171;28;20037;-77
2023/06/06 05:43:52;;;;;;;13.23;4.90;;;14.30;99.90;;;13.97;100.00;101185.78;5012105;28;20502;-78
2023/06/06 05:46:19;;;;;;;15.43;4.85;;;14.40;99.90;;;13.89;100.00;101185.00;5020581;28;20039;-79
2023/06/06 05:48:45;;;;;;;14.77;5.50;;;14.30;99.90;;;13.97;100.00;101172.06;5010967;28;20080;-81
2023/06/06 05:51:10;;;;;;;17.80;5.00;;;14.40;99.90;;;14.01;100.00;101185.09;5013807;28;20053;-81
2023/06/06 05:53:44;;;;;;;14.40;4.90;;;14.40;99.90;;;14.04;100.00;101175.56;5002588;28;20049;-79
2023/06/06 05:56:12;;;;;;;15.13;4.95;;;14.50;99.90;;;14.23;100.00;101182.75;5000575;28;20038;-80
2023/06/06 05:58:37;;;;;;;9.18;4.28;;;14.50;99.90;;;14.41;100.00;101177.47;4998557;28;20073;-80
2023/06/06 06:01:04;;;;;;;9.18;4.15;;;14.80;99.90;;;14.43;100.00;101169.84;5002313;28;20070;-80
2023/06/06 06:03:30;;;;;;;9.23;4.70;;;14.90;99.90;;;14.60;100.00;101173.66;5001428;28;20460;-77
2023/06/06 06:06:02;;;;;;;10.38;4.43;;;15.00;99.90;;;14.80;100.00;101178.91;5005251;28;20073;-80
2023/06/06 06:08:29;;;;;;;11.00;4.38;;;15.20;99.90;;;14.94;100.00;101170.50;5021102;28;20092;-80
2023/06/06 06:10:55;;;;;;;10.55;4.47;;;15.40;99.90;;;14.99;100.00;101169.81;4995045;28;20121;-79
2023/06/06 06:13:21;;;;;;;6.95;4.10;;;15.50;99.90;;;15.18;100.00;101163.16;5015211;28;20037;-80
2023/06/06 06:15:47;;;;;;;7.95;3.88;;;15.60;99.90;;;15.45;100.00;101170.97;5006256;28;20425;-80
2023/06/06 06:18:13;;;;;;;7.47;4.43;;;15.80;99.90;;;15.63;100.00;101183.78;4995249;28;20057;-80
2023/06/06 06:20:38;;;;;;;7.00;3.50;;;16.00;99.90;;;16.09;100.00;101184.06;5006202;28;20038;-80
2023/06/06 06:23:04;;;;;;;7.00;3.83;;;16.30;99.90;;;16.21;99.10;101173.03;4999511;28;20050;-80
2023/06/06 06:25:30;;;;;;;5.78;3.47;;;16.50;99.90;;;16.55;96.01;101169.59;5004597;28;20042;-80
2023/06/06 06:27:56;;;;;;;7.38;3.25;;;16.80;99.90;;;16.79;93.13;101175.88;5016998;28;20371;-81
2023/06/06 06:30:22;;;;;;;6.07;3.17;;;16.90;99.90;;;16.99;87.79;101174.63;5007048;28;20155;-79
2023/06/06 06:32:48;;;;;;;5.85;3.28;;;17.10;99.90;;;17.23;85.67;101174.47;4998473;28;20397;-80
2023/06/06 06:35:14;;;;;;;6.13;3.15;;;17.40;99.90;;;17.50;85.19;101182.09;5018237;28;20030;-81
2023/06/06 06:37:40;;;;;;;9.25;3.53;;;17.50;99.90;;;17.66;84.64;101177.69;4996362;28;20533;-80
2023/06/06 06:40:10;;;;;;;7.65;3.08;;;17.70;99.90;;;17.83;85.22;101180.41;4998827;28;20038;-81
2023/06/06 06:42:42;;;;;;;6.95;3.33;;;17.80;99.90;;;17.97;82.60;101178.13;4998309;28;20478;-81
2023/06/06 06:45:23;;;;;;;6.03;3.30;;;18.00;99.90;;;18.14;82.48;101180.03;5021617;28;20038;-81
2023/06/06 06:47:49;;;;;;;6.37;3.17;;;18.10;99.90;;;18.02;78.83;101177.38;5000183;28;20046;-80
2023/06/06 06:50:15;;;;;;;7.28;3.20;;;18.20;99.90;;;17.81;81.42;101171.56;4998366;28;20298;-79
2023/06/06 06:52:41;;;;;;;8.52;3.58;;;18.10;99.90;;;17.54;78.23;101166.72;5025231;28;20074;-78
2023/06/06 06:55:09;;;;;;;6.18;3.13;;;18.00;99.90;;;17.36;82.59;101178.81;4997018;28;20031;-80
2023/06/06 06:57:36;;;;;;;5.90;2.97;;;17.70;99.90;;;17.18;80.39;101177.13;5004954;28;20038;-78
2023/06/06 07:00:14;;;;;;;7.57;3.70;;;17.50;99.90;;;17.26;80.33;101174.00;4993355;28;20038;-79
2023/06/06 07:02:42;;;;;;;5.15;2.95;;;17.50;99.90;;;17.58;82.71;101181.69;5009328;28;20053;-78
2023/06/06 07:05:09;;;;;;;5.63;3.15;;;17.60;99.90;;;17.82;85.99;101187.03;5011598;28;20057;-79
2023/06/06 07:07:42;;;;;;;7.13;3.00;;;17.80;99.90;;;18.07;85.79;101191.28;5009061;28;20100;-80
2023/06/06 07:10:09;;;;;;;8.63;3.28;;;18.00;99.90;;;18.34;81.26;101188.59;5022528;28;20374;-78
2023/06/06 07:12:34;;;;;;;7.90;3.33;;;18.30;99.90;;;18.77;77.37;101191.59;5009370;28;20132;-79
2023/06/06 07:15:00;;;;;;;7.00;3.22;;;;;;;19.08;72.75;101189.19;5011566;28;20034;-79
2023/06/06 07:17:26;;;;;;;6.13;2.97;;;;;;;19.46;68.82;101185.69;5005164;28;20152;-78
2023/06/06 07:19:52;;;;;;;7.70;2.95;;;;;;;19.29;65.06;101185.81;4993798;28;20043;-80
2023/06/06 07:22:19;;;;;;;6.13;2.90;;;;;;;19.60;65.86;101192.44;5010869;28;20022;-79
2023/06/06 07:24:45;;;;;;;6.03;3.20;;;;;;;19.85;61.67;101188.19;5001428;28;20112;-80
2023/06/06 07:27:13;;;;;;;6.18;2.80;;;;;;;20.16;62.48;101195.88;5001277;28;20030;-80
2023/06/06 07:29:39;;;;;;;7.07;3.35;;;18.60;99.90;;;19.82;59.12;101191.47;4994021;28;20065;-79
2023/06/06 07:32:05;;;;;;;10.55;3.22;;;20.30;97.90;;;19.70;60.34;101191.66;5009314;28;20338;-80
2023/06/06 07:34:31;;;;;;;6.30;2.55;;;20.20;97.90;;;20.04;62.03;101198.84;4994957;28;20074;-78
2023/06/06 07:36:58;;;;;;;4.82;2.80;;;20.30;98.50;;;20.19;61.76;101195.34;5002522;28;20054;-78
2023/06/06 07:39:23;;;;;;;6.97;2.60;;;20.40;98.80;;;20.50;62.80;101196.34;5000890;28;20052;-79
2023/06/06 07:41:49;;;;;;;6.60;2.90;;;;;;;20.69;60.17;101193.91;5004667;28;20038;-78
2023/06/06 07:44:17;;;;;;;8.35;2.83;;;;;;;20.77;57.86;101192.56;4998362;28;20042;-77
2023/06/06 07:46:43;;;;;;;6.37;2.83;;;;;;;20.77;59.28;101197.25;5000770;28;20137;-78
2023/06/06 07:49:09;;;;;;;5.95;2.95;;;;;;;20.93;56.16;101190.69;4996588;28;20390;-78
2023/06/06 07:51:35;;;;;;;5.85;2.80;;;;;;;21.05;56.53;101190.44;5007993;28;20088;-76
2023/06/06 07:54:01;;;;;;;8.10;3.28;;;;;;;21.02;55.73;101193.75;4991840;28;20066;-79
2023/06/06 07:56:30;;;;;;;12.85;3.63;;;;;;;21.17;56.61;101194.88;5003488;28;20034;-78
2023/06/06 07:58:57;;;;;;;5.82;2.95;;;;;;;20.65;52.45;101181.69;5022677;28;20354;-77
2023/06/06 08:01:25;;;;;;;6.05;2.72;;;;;;;20.86;54.90;101197.59;5013357;28;20076;-77
2023/06/06 08:03:54;;;;;;;7.60;3.00;;;;;;;21.24;53.48;101187.13;4997890;28;20054;-77
2023/06/06 08:06:23;;;;;;;3.92;2.38;;;;;;;21.75;53.29;101197.41;5018074;28;20097;-77
2023/06/06 08:08:49;;;;;;;4.75;2.78;;;;;;;21.96;55.52;101197.41;5003561;28;20073;-77
2023/06/06 08:11:19;;;;;;;4.53;2.85;;;;;;;22.18;50.33;101185.94;4997850;28;20034;-75
2023/06/06 08:13:45;;;;;;;5.97;2.63;;;;;;;22.37;53.03;101194.47;4996498;28;20050;-76
2023/06/06 08:16:11;;;;;;;6.60;3.08;;;;;;;22.62;49.92;101189.97;5005584;28;20038;-78
2023/06/06 08:18:40;;;;;;;5.28;2.50;;;;;;;22.81;50.06;101198.50;5006441;28;20045;-78
2023/06/06 08:21:07;;;;;;;4.38;2.40;;;;;;;22.92;48.54;101187.31;5005503;28;20065;-78
2023/06/06 08:23:36;;;;;;;5.63;2.92;;;;;;;22.79;47.42;101192.38;5001030;28;20031;-78
2023/06/06 08:26:02;;;;;;;6.40;2.88;;;;;;;22.99;47.91;101196.16;5001423;28;20062;-78
2023/06/06 08:28:28;;;;;;;6.60;2.75;;;;;;;23.16;47.75;101194.94;4997099;28;20121;-78
2023/06/06 08:30:54;;;;;;;5.15;2.35;;;;;;;23.18;46.98;101199.09;5003579;28;20038;-78
2023/06/06 08:33:21;;;;;;;7.18;2.90;;;;;;;23.13;44.97;101182.44;5000592;28;20054;-77
2023/06/06 08:35:47;;;;;;;8.07;2.40;;;;;;;23.58;46.79;101195.50;4999338;28;20039;-77
2023/06/06 08:38:15;;;;;;;4.63;2.78;;;;;;;23.78;47.12;101194.47;5003751;28;20046;-78
2023/06/06 08:40:42;;;;;;;8.85;2.65;;;;;;;24.11;46.36;101187.19;4999704;28;20129;-78
2023/06/06 08:43:10;;;;;;;5.10;2.88;;;;;;;23.85;44.05;101175.44;5006414;28;20038;-79
2023/06/06 08:45:46;;;;;;;4.50;2.40;;;;;;;24.06;44.70;101187.25;5002063;28;20038;-77
2023/06/06 08:48:14;;;;;;;7.15;2.92;;;;;;;24.22;42.98;101175.91;4996397;28;20069;-78
2023/06/06 08:50:42;;;;;;;6.10;2.70;;;;;;;24.45;43.29;101177.03;5006846;28;20091;-77
2023/06/06 08:53:10;;;;;;;6.47;2.70;;;;;;;24.54;43.03;101186.38;5004353;28;20042;-77
2023/06/06 08:55:37;;;;;;;5.70;2.50;;;;;;;24.20;43.83;101189.31;5000144;28;20058;-78
2023/06/06 08:58:04;;;;;;;9.93;2.83;;;;;;;23.94;43.47;101182.06;5001253;28;20108;-77
2023/06/06 09:00:30;;;;;;;5.90;3.03;;;;;;;23.99;44.28;101186.72;4999044;28;20086;-77
2023/06/06 09:02:59;;;;;;;7.47;3.00;;;;;;;23.76;44.75;101182.78;5000957;28;20042;-77
2023/06/06 09:05:26;;;;;;;6.90;2.90;;;;;;;23.27;45.44;101183.50;4996084;28;20039;-78
2023/06/06 09:07:53;;;;;;;5.43;2.85;;;;;;;23.88;45.14;101186.03;5004772;28;20026;-77
2023/06/06 09:10:19;;;;;;;6.20;2.70;;;;;;;24.19;43.59;101185.72;5000019;28;20037;-77
2023/06/06 09:12:46;;;;;;;5.27;2.50;;;;;;;24.03;44.57;101190.63;4998048;28;20525;-76
2023/06/06 09:15:13;;;;;;;5.97;2.93;;;;;;;24.31;44.49;101185.28;5019439;28;20084;-76
2023/06/06 09:17:43;;;;;;;5.33;2.77;;;;;;;24.63;43.00;101185.72;5002323;28;20894;-76
2023/06/06 09:20:14;;;;;;;5.25;2.65;;;;;;;24.66;41.93;101182.31;4995932;28;20292;-77
2023/06/06 09:22:45;;;;;;;5.00;2.70;;;;;;;24.73;40.61;101182.81;4991785;28;20038;-77
2023/06/06 09:25:22;;;;;;;7.95;2.65;;;;;;;24.96;41.53;101183.06;5012185;28;20394;-79
2023/06/06 09:27:56;;;;;;;5.07;2.78;;;;;;;25.33;39.89;101170.19;5010389;28;20045;-78
2023/06/06 09:30:24;;;;;;;5.65;2.40;;;;;;;25.92;42.16;101182.91;4996230;28;20795;-77
2023/06/06 09:32:58;;;;;;;7.45;2.70;;;;;;;26.24;40.77;101178.38;4996872;28;20061;-77
2023/06/06 09:35:29;;;;;;;5.97;2.70;;;;;;;26.45;39.07;101166.78;5010176;28;20049;-78
2023/06/06 09:37:56;;;;;;;5.25;2.60;;;;;;;26.19;36.48;101151.34;5001243;28;20041;-78
2023/06/06 09:40:23;;;;;;;6.68;2.70;;;;;;;26.76;37.08;101161.31;5007153;28;20049;-77
2023/06/06 09:42:50;;;;;;;3.90;2.57;;;;;;;26.80;36.18;101161.50;4994909;28;20160;-77
2023/06/06 09:45:17;;;;;;;7.60;2.60;;;;;;;26.41;35.54;101158.16;5001311;28;20384;-78
2023/06/06 09:47:45;;;;;;;5.78;2.75;;;;;;;25.92;37.46;101166.94;5009867;28;20117;-77
2023/06/06 09:50:13;;;;;;;5.85;2.63;;;;;;;25.81;37.45;101171.88;5017457;28;20036;-77
2023/06/06 09:52:40;;;;;;;5.25;2.67;;;;;;;25.75;38.29;101181.50;4998615;28;20073;-77
2023/06/06 09:55:13;;;;;;;5.22;2.78;;;;;;;26.03;38.39;101175.16;5012961;28;20030;-77
2023/06/06 09:57:41;;;;;;;8.15;2.70;;;;;;;26.43;38.59;101175.47;5003856;28;20043;-78
2023/06/06 10:00:15;;;;;;;7.72;3.30;;;;;;;26.72;37.19;101171.47;5003375;28;20026;-78
2023/06/06 10:02:45;;;;;;;9.55;2.85;;;;;;;26.88;37.13;101166.38;5005406;28;20057;-76
2023/06/06 10:05:16;;;;;;;6.57;2.83;;;;;;;26.97;36.59;101166.47;5011724;28;20040;-77
2023/06/06 10:07:46;;;;;;;4.43;2.78;;;;;;;26.97;36.00;101163.66;5011450;28;20104;-77
2023/06/06 10:10:15;;;;;;;6.13;2.97;;;;;;;27.48;35.55;101158.78;4996966;28;20053;-79
2023/06/06 10:12:43;;;;;;;5.22;2.50;;;;;;;27.90;34.13;101152.94;5000837;28;20390;-78
2023/06/06 10:15:11;;;;;;;5.47;2.55;;;;;;;28.73;33.87;101158.09;4999375;28;20040;-78
2023/06/06 10:17:39;;;;;;;6.07;2.70;;;;;;;28.82;34.00;101168.22;4997298;28;20062;-78
2023/06/06 10:20:07;;;;;;;6.05;2.92;;;;;;;28.92;33.09;101157.84;4987221;28;20084;-77
2023/06/06 10:22:40;;;;;;;6.57;2.55;;;;;;;29.67;30.80;101140.69;5002660;28;20042;-77
2023/06/06 10:25:14;;;;;;;6.15;2.72;;;;;;;30.02;29.03;101124.88;5013743;28;20066;-76
2023/06/06 10:28:00;;;;;;;6.13;2.88;;;;;;;30.15;30.58;101143.50;5002893;28;20112;-76
2023/06/06 10:30:43;;;;;;;8.38;2.83;;;;;;;29.07;31.09;101148.88;4998391;28;20037;-77
2023/06/06 10:33:17;;;;;;;6.60;2.70;;;;;;;28.29;33.13;101158.88;5009649;28;20095;-78